EDDE/ERF METAR and TAF weather

Enter ICAO airport designator
Station Type Date Time Source
EDDE METAR 2019/08/21 22:20 UTC NOAA

EDDE 212220Z 02002KT CAVOK 17/07 Q1028


Station Type Date Time Source
EDDE Decoded METAR 2019/08/21 22:20 UTC NOAA

Station name not available
Aug 21, 2019 - 06:20 PM EDT / 2019.08.21 2220 UTC
Wind: from the NNE (020 degrees) at 2 MPH (2 KT):0
Visibility: greater than 7 mile(s):0
Temperature: 62 F (17 C)
Dew Point: 44 F (7 C)
Relative Humidity: 51%
Pressure (altimeter): 30.36 in. Hg (1028 hPa)
ob: EDDE 212220Z 02002KT CAVOK 17/07 Q1028
cycle: 22

Station Type Date Time Source
EDDE TAF 2019/08/21 18:27 UTC NOAA

TAF TAF EDDE 211700Z 2118/2218 VRB03KT CAVOK
BECMG 2208/2210 07006KT

Example: see airport list